Webcam 1 more information Webcam 1


Webcam 2 more information Webcam 2


avvertimento per Temporali more information blitzortung!


avvertimento per Pioggia more information rain snow radar


altri nostri siti meteo:

TortoretometeolidoSito sul meteo

TortoretometeolidoSito sul meteo

Pomeziameteo 1Sito sul meteo

Pomeziameteo DashboardSito sul meteo

Caput FrigorisSito sul meteo

BarcellonameteoSito sul meteo

MeteoipassiSito sul meteo

ViterbometeoSito sul meteo

CastelnuovovomanometeoSito sul meteo



Pioggia Inizio validita dal: 22-07-2018 23:00 Fino: 23-07-2018 22:59 Allerta per: Pioggia Livello: Giallo info button
Temporali Inizio validita dal: 22-07-2018 23:00 Fino: 23-07-2018 22:59 Allerta per: Temporali Livello: Giallo info button

Report METAR

   
LIBP - Pescara
Dati ricevuti: 22-07-2018 01:50
Sereno  
Sereno  
   Vento: SW 9.3 km/h
Vento: SW 9.3 km/h
Temperatura: 22°C
P.to Rugiada: 20°C
Umidita: 88%
Barometro: 1008 hPa
Nuvole: Sereno
Visibilita: oltre 10 km
dettagli cloud: Sereno
LIBP 212350Z AUTO 22005KT 9999 NCD 22/20 Q1008
LIRZ - Perugia
Dati ricevuti: 22-07-2018 01:50
Molto nuvoloso  
Molto nuvoloso  
   Vento: Variabile 3.7 km/h
Vento: Variabile 3.7 km/h
Temperatura: 20°C
P.to Rugiada: 15°C
Umidita: 73%
Barometro: 1011 hPa
Nuvole: Molto nuvoloso
Visibilita: oltre 10 km
dettagli cloud: Molto nuvoloso 4700 ft
LIRZ 212350Z AUTO VRB02KT 9999 BKN047/// 20/15 Q1011
LIQN - Rieti
Dati ricevuti: 21-07-2018 19:50
DATI Obsoleti
Sereno  
Sereno  
   Vento: S 9.3 km/h
Vento: S 9.3 km/h
Temperatura: 28°C
Indice di Calore: 28°C
P.to Rugiada: 15°C
Umidita: 45%
Barometro: 1010 hPa
Visibilita: oltre 10 km
dettagli cloud: Sereno
LIQN 211750Z 20005KT CAVOK 28/15 Q1010
LIPY - Falconara
Dati ricevuti: 21-07-2018 23:50
DATI Obsoleti
Sereno  
Sereno  
   Vento: Variabile 3.7 km/h
Vento: Variabile 3.7 km/h
Temperatura: 24°C
P.to Rugiada: 21°C
Umidita: 83%
Barometro: 1009 hPa
Visibilita: oltre 10 km
dettagli cloud: Sereno
LIPY 212150Z VRB02KT CAVOK 24/21 Q1009
  

Script sviluppato da  Saratoga-weather.org Adattato per il modello da  Weerstation Leuven

Potete trovare le nostre info meteo anche a:

European Weather Network

Weather Underground

AWEKAS

Citizen Weather Observer Program (CWOP)

HAMweather, WeatherForYou, PWS Weather

Strumentazione usata:

Stazione meteo
Davis VP2

Programma gestore dati meteo
WVIEW

Server per i dati meteo
My Computer

Provider
My provider

Davis VP2

WVIEW

My Computer

My provider